Riley, Michigan
Current Conditions -  °F | °C
As of 5:16 AM on Tuesday 21 Oct 2014 (Local Time) from KPHN Reporting Station
Light Rain Light Rain  
Wind Chill: 43°   Ceiling: 800
Heat Index: 46°   Visibility: 7mi
Dew Point: 46°   Wind: 7mph
Humidity: 100%   Direction: 300°WNW
Pressure: 29.88"   Gusts: NA
Location:  42.9405°N, 82.8034°W
Report Text: KPHN 210916Z AUTO 30006KT 7SM -RA OVC008 08/08 A2988 RMK AO2
Loading
Personal Weather Stations






























Interactive Weather Map
Tropical Storm Tracking
New forecast layout! Learn more

10-Day Weather Forecast

Advertisements
Track Severe Weather on mobile